Flight Track Log - Related Links

Times and Time Zones

All times are in EDT time to prevent confusion due to time zone crossing. See the SWA862 flight status page for this flight to view local times or setup timezone preferences in your user account.

Time Position Orientation Groundspeed Altitude Reporting Facility
EDT Latitude Longitude Course Direction KTS MPH feet Rate Location/Type
Thu 10:29:20 PM 39.1500 -76.6500 103° East 158 182 1,500  Level Potomac TRACON
Thu 10:31:15 PM 39.1267 -76.5172 103° East 195 224 5,400 2,571 Climbing Washington Center
Thu 10:32:15 PM 39.1336 -76.4131 85° East 246 283 9,000 3,100 Climbing Washington Center
Thu 10:33:15 PM 39.1469 -76.2956 82° East 292 336 11,600 2,450 Climbing Washington Center
Thu 10:34:15 PM 39.1600 -76.1511 83° East 349 402 13,900 2,600 Climbing Washington Center
Thu 10:35:15 PM 39.1961 -76.0122 71° East 389 448 16,800 2,650 Climbing Washington Center
Thu 10:36:15 PM 39.2756 -75.8919 50° Northeast 412 474 19,200 2,550 Climbing Washington Center
Thu 10:37:15 PM 39.3614 -75.7686 48° Northeast 434 499 21,900 2,350 Climbing Washington Center
Thu 10:38:15 PM 39.4489 -75.6400 49° Northeast 455 524 23,900 1,912 Climbing Washington Center
Thu 10:40:17 PM 39.6319 -75.3669 49° Northeast 500 575 27,700 1,967 Climbing New York Center
Thu 10:41:15 PM 39.7228 -75.2297 49° Northeast 500 575 29,800 1,785 Climbing New York Center
Thu 10:42:18 PM 39.8136 -75.0867 50° Northeast 507 583 31,300 1,900 Climbing New York Center
Thu 10:43:15 PM 39.9061 -74.9464 49° Northeast 507 583 33,600 2,205 Climbing New York Center
Thu 10:44:15 PM 40.0031 -74.7978 50° Northeast 502 578 35,600 1,475 Climbing New York Center
Thu 10:45:17 PM 40.0822 -74.6803 49° Northeast 489 563 36,600 689 Climbing New York Center
Thu 10:46:17 PM 40.1831 -74.5256 50° Northeast 489 563 37,000 202 Climbing New York Center
Thu 10:47:16 PM 40.2908 -74.4117 39° Northeast 489 563 37,000  Level New York Center
Thu 10:49:23 PM 40.5442 -74.3436 12° North 459 528 37,000  Level Boston Center
Thu 10:50:22 PM 40.6739 -74.3144 10° North 459 528 37,000  Level Boston Center
Thu 10:51:23 PM 40.8161 -74.2858 North 465 535 37,000  Level Boston Center
Thu 10:52:24 PM 40.9436 -74.2536 11° North 465 535 37,000  Level Boston Center
Thu 10:53:22 PM 41.0692 -74.2242 10° North 465 535 37,000  Level Boston Center
Thu 10:54:22 PM 41.1947 -74.1944 10° North 459 528 37,000  Level Boston Center
Thu 10:55:24 PM 41.3056 -74.1617 13° North 459 528 37,000  Level Boston Center
Thu 10:56:22 PM 41.4333 -74.1319 10° North 459 528 37,000 -555 Level Boston Center
Thu 10:57:23 PM 41.5711 -74.1022 North 454 522 35,900 -1,377 Descending Boston Center
Thu 10:58:24 PM 41.6911 -74.0303 24° Northeast 454 522 34,200 -1,866 Descending Boston Center
Thu 10:59:22 PM 41.7825 -73.8850 50° Northeast 466 536 32,200 -2,085 Descending Boston Center
Thu 11:00:22 PM 41.8697 -73.7475 50° Northeast 471 542 30,100 -2,049 Descending Boston Center
Thu 11:01:25 PM 41.9589 -73.6097 49° Northeast 477 549 28,000 -2,132 Descending Boston Center
Thu 11:02:23 PM 42.0456 -73.4744 49° Northeast 482 555 25,800 -2,051 Descending Boston Center
Thu 11:03:22 PM 42.1322 -73.3417 49° Northeast 482 555 24,000 -900 Descending Boston Center
Thu 11:04:23 PM 42.2144 -73.2136 49° Northeast 459 528 24,000 -250 Level Boston Center
Thu 11:05:22 PM 42.2964 -73.0828 50° Northeast 454 522 23,500 -807 Descending Boston Center
Thu 11:06:22 PM 42.3825 -72.9489 49° Northeast 460 529 22,400 -1,450 Descending Boston Center
Thu 11:07:22 PM 42.4622 -72.8200 50° Northeast 460 529 20,600 -1,328 Descending Boston Center
Thu 11:08:24 PM 42.5356 -72.7022 50° Northeast 434 499 19,700 -1,100 Descending Boston Center
Thu 11:09:22 PM 42.5961 -72.6092 49° Northeast 390 449 18,400 -1,525 Descending Boston Center
Thu 11:10:22 PM 42.6631 -72.5050 49° Northeast 369 425 16,700 -1,610 Descending Boston Center
Thu 11:11:25 PM 42.7275 -72.4006 50° Northeast 358 412 15,100 -1,550 Descending Boston Center
Thu 11:12:22 PM 42.7881 -72.2986 51° Northeast 358 412 13,600 -1,729 Descending Boston Center
Thu 11:13:23 PM 42.8044 -72.1600 81° East 329 379 11,700 -1,736 Descending Boston Center
Thu 11:14:23 PM 42.8125 -72.0439 85° East 334 384 10,100 -1,850 Descending Boston Center
Thu 11:15:23 PM 42.8222 -71.9108 84° East 329 379 8,000 -1,636 Descending Boston Center
Thu 11:16:24 PM 42.8031 -71.8092 104° East 310 357 6,800 -1,361 Descending Boston Center
Thu 11:17:22 PM 42.7711 -71.7019 112° Southeast 286 329 5,300 -1,513 Descending Boston Center
Thu 11:18:23 PM 42.7831 -71.6253 78° East 238 274 3,800 -984 Descending Boston Center
Thu 11:19:24 PM 42.8367 -71.5653 39° Northeast 205 236 3,300 -706 Descending Boston Center
Thu 11:20:22 PM 42.8636 -71.5308 43° Northeast 176 203 2,400 -1,068 Descending Boston Center
Thu 11:21:22 PM 42.8925 -71.4936 43° Northeast 138 159 1,200 -900 Descending Boston Center
Thu 11:22:22 PM 42.9172 -71.4647 41° Northeast 130 150 600 -450 Descending Boston Center
Thu 11:23:22 PM 42.9439 -71.4275 46° Northeast 130 150 300 4,131 Descending Boston Center
Thu 11:24:24 PM 42.9686 -71.3931 46° Northeast 130 150 9,000 4,314 Climbing Boston Center
Thu 11:25:23 PM 42.9956 -71.3558 45° Northeast 130 150 9,000  Level Boston Center
Thu 11:26:22 PM 43.0200 -71.3211 46° Northeast 130 150 9,000  Level Boston Center
Thu 11:28:00 PM 42.9328 -71.4358 221° Southwest  Level Estimated
Thu 11:35:00 PM 42.9328 -71.4358 221° Southwest  Level Estimated
Thu 11:36:00 PM 42.9328 -71.4358 221° Southwest  Level Estimated
Thu 11:37:00 PM 42.9328 -71.4358 221° Southwest  Level Estimated
Thu 11:38:00 PM 42.9328 -71.4358 221° Southwest  Level Estimated
Thu 11:39:00 PM 42.9328 -71.4358 221° Southwest  Level Estimated
Thu 11:40:00 PM 42.9328 -71.4358 221° Southwest  Level Estimated
Thu 11:41:00 PM 42.9328 -71.4358 221° Southwest  Level Estimated

Login

Don't have an account? Register now (free) for customized features, flight alerts, and more!